Current Weather

Yacuiba

Yacuiba, Bolivia (SLYA)

Report from: Friday, December 2, 2022 3:00 PM -04
Current time: Sunday, December 4, 2022 7:22 AM -04

Nearby weather
Weather history
Weather forecast

Temperature29.0°C (84.2°F)
Heat index30.5°C (87.0°F)
Dew point19.0°C (66.2°F)
Winds 4 kts (2.1 m/s, 4.6 mph) West-Southwest (240°)
Visibility6.2 mi. (10 km)
Clouds Scattered clouds 2,300 ft. (701 m)
Altimeter29.85 in.Hg (1011 mB)
Relative humidity55 %
Density altitude1,982 ft. (604 m)
Flight conditions Visual Meteorological Conditions
Raw dataSLYA 021900Z 24004KT 9999 SCT023 29/19 Q1011
An error has occurred. This application may no longer respond until reloaded. Reload 🗙